Flight Track Log - Related Links

Times and Time Zones

All times are in EDT time to prevent confusion due to time zone crossing. See the SKW5387 flight status page for this flight to view local times or setup timezone preferences in your user account.


Time Position Orientation Groundspeed Altitude Reporting Facility
EDT Latitude Longitude Course Direction KTS MPH feet Rate Location/Type
Fri 06:37:32 PM 39.8919 -104.6521 318° Northwest  Level FlightAware Approximate
Fri 06:37:42 PM 39.9333 -104.7000 North 211 243 7,000  Level Denver TRACON
Fri 06:42:14 PM 40.2975 -104.6575 353° North 339 390 14,000 1,509 Climbing Denver Center
Fri 06:43:16 PM 40.3964 -104.6739 355° North 336 387 15,400 1,440 Climbing Denver Center
Fri 06:44:19 PM 40.4897 -104.6844 354° North 337 388 17,000 1,248 Climbing Denver Center
Fri 06:45:21 PM 40.5922 -104.6975 354° North 343 395 18,000 1,152 Climbing Denver Center
Fri 06:46:24 PM 40.6892 -104.7100 354° North 350 403 19,400 1,296 Climbing Denver Center
Fri 06:47:26 PM 40.7911 -104.7231 354° North 343 395 20,700 1,008 Climbing Denver Center
Fri 06:48:29 PM 40.8886 -104.7358 355° North 346 398 21,500 768 Climbing Denver Center
Fri 06:49:31 PM 40.9886 -104.7478 356° North 353 406 22,300 768 Climbing Denver Center
Fri 06:50:34 PM 41.0933 -104.7569 355° North 359 413 23,100 810 Climbing Denver Center
Fri 06:51:37 PM 41.2058 -104.7706 330° Northwest 363 418 24,000 816 Climbing Denver Center
Fri 06:52:39 PM 41.2886 -104.8336 330° Northwest 358 412 24,800 816 Climbing Denver Center
Fri 06:53:42 PM 41.3844 -104.9067 329° Northwest 353 406 25,700 768 Climbing Denver Center
Fri 06:54:44 PM 41.4664 -104.9722 329° Northwest 357 411 26,400 768 Climbing Denver Center
Fri 06:55:47 PM 41.5614 -105.0492 329° Northwest 357 411 27,300 720 Climbing Denver Center
Fri 06:56:49 PM 41.6433 -105.1139 329° Northwest 357 411 27,900 576 Climbing Denver Center
Fri 06:57:52 PM 41.7386 -105.1894 329° Northwest 357 411 28,500 528 Climbing Denver Center
Fri 06:58:54 PM 41.8217 -105.2572 329° Northwest 361 415 29,000 528 Climbing Denver Center
Fri 06:59:57 PM 41.9197 -105.3358 329° Northwest 365 420 29,600 528 Climbing Denver Center
Fri 07:00:59 PM 42.0036 -105.4044 329° Northwest 367 422 30,100 624 Climbing Denver Center
Fri 07:02:02 PM 42.1003 -105.4817 329° Northwest 363 418 30,900 720 Climbing Denver Center
Fri 07:03:04 PM 42.1789 -105.5458 329° Northwest 351 404 31,600 528 Climbing Denver Center
Fri 07:04:07 PM 42.2694 -105.6203 329° Northwest 343 395 32,000 192 Climbing Denver Center
Fri 07:05:09 PM 42.3494 -105.6858 329° Northwest 347 399 32,000  Level Denver Center
Fri 07:06:12 PM 42.4469 -105.7650 328° Northwest 360 414 32,000  Level Denver Center
Fri 07:07:14 PM 42.5314 -105.8358 329° Northwest 368 423 32,000  Level Denver Center
Fri 07:08:17 PM 42.6300 -105.9178 329° Northwest 370 426 32,000  Level Denver Center
Fri 07:09:19 PM 42.7139 -105.9875 329° Northwest 370 426 32,000  Level Denver Center
Fri 07:10:22 PM 42.8136 -106.0700 329° Northwest 373 429 32,000  Level Denver Center
Fri 07:11:24 PM 42.8986 -106.1400 329° Northwest 372 428 32,000  Level Denver Center
Fri 07:12:27 PM 43.0003 -106.2239 328° Northwest 378 435 32,000  Level Denver Center
Fri 07:13:29 PM 43.0858 -106.2967 329° Northwest 378 435 32,000  Level Denver Center
Fri 07:14:32 PM 43.1875 -106.3811 328° Northwest 381 438 32,000  Level Denver Center
Fri 07:15:34 PM 43.2736 -106.4558 328° Northwest 382 440 32,000  Level Denver Center
Fri 07:16:37 PM 43.3747 -106.5414 327° Northwest 384 442 32,000  Level Denver Center
Fri 07:17:07 PM 43.4178 -106.5797 328° Northwest 384 442 32,000  Level Salt Lake Center
Fri 07:18:09 PM 43.5208 -106.6672 328° Northwest 388 447 32,000  Level Salt Lake Center
Fri 07:19:11 PM 43.6092 -106.7442 328° Northwest 391 450 32,000  Level Salt Lake Center
Fri 07:20:13 PM 43.7128 -106.8322 327° Northwest 392 451 32,000  Level Salt Lake Center
Fri 07:21:15 PM 43.8042 -106.9153 327° Northwest 387 445 32,000  Level Salt Lake Center
Fri 07:22:17 PM 43.8900 -106.9922 329° Northwest 385 443 32,000  Level Salt Lake Center
Fri 07:23:19 PM 43.9783 -107.0667 329° Northwest 387 445 32,000  Level Salt Lake Center
Fri 07:24:21 PM 44.0822 -107.1528 328° Northwest 388 447 32,000  Level Salt Lake Center
Fri 07:25:23 PM 44.1686 -107.2294 328° Northwest 386 444 32,000  Level Salt Lake Center
Fri 07:26:25 PM 44.2694 -107.3189 327° Northwest 385 443 32,000  Level Salt Lake Center
Fri 07:27:28 PM 44.3553 -107.3956 328° Northwest 384 442 32,000  Level Salt Lake Center
Fri 07:28:30 PM 44.4556 -107.4847 328° Northwest 383 441 32,000  Level Salt Lake Center
Fri 07:29:32 PM 44.5422 -107.5611 328° Northwest 384 442 32,000  Level Salt Lake Center
Fri 07:30:34 PM 44.6431 -107.6503 328° Northwest 385 443 32,000  Level Salt Lake Center
Fri 07:31:36 PM 44.7289 -107.7272 328° Northwest 384 442 32,000  Level Salt Lake Center
Fri 07:32:38 PM 44.8281 -107.8150 328° Northwest 384 442 32,000  Level Salt Lake Center
Fri 07:33:40 PM 44.9275 -107.9044 327° Northwest 390 449 32,000  Level Salt Lake Center
Fri 07:34:42 PM 45.0139 -107.9831 327° Northwest 391 450 32,000  Level Salt Lake Center
Fri 07:35:44 PM 45.1097 -108.0728 328° Northwest 370 426 32,000  Level Salt Lake Center
Fri 07:36:47 PM 45.1964 -108.1511 327° Northwest 382 440 32,000  Level Salt Lake Center
Fri 07:37:49 PM 45.2944 -108.2428 327° Northwest 380 437 32,000  Level Salt Lake Center
Fri 07:38:51 PM 45.3792 -108.3211 327° Northwest 380 437 32,000  Level Salt Lake Center
Fri 07:39:53 PM 45.4781 -108.4128 327° Northwest 379 436 32,000  Level Salt Lake Center
Fri 07:40:55 PM 45.5617 -108.4903 327° Northwest 376 433 32,000  Level Salt Lake Center
Fri 07:41:57 PM 45.6589 -108.5814 326° Northwest 375 432 32,000  Level Salt Lake Center
Fri 07:43:00 PM 45.7411 -108.6611 327° Northwest 375 432 32,000  Level Salt Lake Center
Fri 07:44:02 PM 45.8258 -108.7411 327° Northwest 381 438 32,000  Level Salt Lake Center
Fri 07:45:04 PM 45.9244 -108.8319 327° Northwest 377 434 32,000  Level Salt Lake Center
Fri 07:46:06 PM 46.0078 -108.9103 327° Northwest 375 432 32,000  Level Salt Lake Center
Fri 07:47:08 PM 46.1047 -109.0019 327° Northwest 374 430 32,000  Level Salt Lake Center
Fri 07:48:10 PM 46.1889 -109.0819 326° Northwest 377 434 32,000  Level Salt Lake Center
Fri 07:49:13 PM 46.2853 -109.1747 327° Northwest 374 430 32,000  Level Salt Lake Center
Fri 07:50:15 PM 46.3692 -109.2550 327° Northwest 376 433 32,000  Level Salt Lake Center
Fri 07:51:17 PM 46.4672 -109.3492 326° Northwest 378 435 32,000  Level Salt Lake Center
Fri 07:52:19 PM 46.5506 -109.4314 324° Northwest 378 435 32,000  Level Salt Lake Center
Fri 07:53:22 PM 46.6469 -109.5317 327° Northwest 381 438 32,000  Level Salt Lake Center
Fri 07:54:24 PM 46.7250 -109.6053 328° Northwest 382 440 32,000  Level Salt Lake Center
Fri 07:55:26 PM 46.8328 -109.7050 326° Northwest 384 442 32,000  Level Salt Lake Center
Fri 07:56:28 PM 46.9208 -109.7936 326° Northwest 385 443 32,000  Level Salt Lake Center
Fri 07:57:31 PM 47.0092 -109.8811 325° Northwest 385 443 32,000  Level Salt Lake Center
Fri 07:58:33 PM 47.0967 -109.9697 326° Northwest 384 442 32,000  Level Salt Lake Center
Fri 07:59:35 PM 47.1847 -110.0583 325° Northwest 385 443 32,000  Level Salt Lake Center
Fri 08:00:37 PM 47.2892 -110.1681 326° Northwest 386 444 32,000  Level Salt Lake Center
Fri 08:01:40 PM 47.3775 -110.2553 326° Northwest 384 442 32,000  Level Salt Lake Center
Fri 08:02:42 PM 47.4656 -110.3442 327° Northwest 385 443 32,000  Level Salt Lake Center
Fri 08:03:44 PM 47.5553 -110.4317 325° Northwest 387 445 32,000 -48 Level Salt Lake Center
Fri 08:04:46 PM 47.6428 -110.5225 325° Northwest 388 447 31,900  Descending Salt Lake Center
Fri 08:05:49 PM 47.7475 -110.6303 325° Northwest 386 444 32,000 48 Climbing Salt Lake Center
Fri 08:06:51 PM 47.8339 -110.7206 325° Northwest 384 442 32,000  Level Salt Lake Center
Fri 08:07:53 PM 47.9208 -110.8100 325° Northwest 384 442 32,000  Level Salt Lake Center
Fri 08:08:55 PM 48.0067 -110.9000 325° Northwest 382 440 32,000  Level Salt Lake Center
Fri 08:09:58 PM 48.1103 -111.0089 325° Northwest 382 440 32,000  Level Salt Lake Center
Fri 08:11:00 PM 48.1978 -111.1003 325° Northwest 384 442 32,000  Level Salt Lake Center
Fri 08:12:02 PM 48.2850 -111.1933 325° Northwest 387 445 32,000  Level Salt Lake Center
Fri 08:13:04 PM 48.3725 -111.2858 325° Northwest 386 444 32,000  Level Salt Lake Center
Fri 08:14:07 PM 48.4597 -111.3789 325° Northwest 387 445 32,000  Level Salt Lake Center
Fri 08:15:09 PM 48.5647 -111.4906 325° Northwest 387 445 32,000  Level Salt Lake Center
Fri 08:16:11 PM 48.6528 -111.5853 285° West 388 447 32,000  Level Salt Lake Center
Fri 08:16:47 PM 48.6667 -111.6667 331° Northwest 380 437 32,000  Level Edmonton Center
Fri 08:17:47 PM 48.7667 -111.7500 322° Northwest 390 449 32,000  Level Edmonton Center
Fri 08:18:47 PM 48.8500 -111.8500 327° Northwest 380 437 32,000  Level Edmonton Center
Fri 08:19:47 PM 48.9333 -111.9333 322° Northwest 380 437 32,000  Level Edmonton Center
Fri 08:20:47 PM 49.0167 -112.0333 323° Northwest 380 437 32,000  Level Edmonton Center
Fri 08:21:47 PM 49.1167 -112.1500 327° Northwest 390 449 32,000  Level Edmonton Center
Fri 08:22:47 PM 49.2000 -112.2333 322° Northwest 390 449 32,000  Level Edmonton Center
Fri 08:23:47 PM 49.2833 -112.3333 332° Northwest 390 449 32,000  Level Edmonton Center
Fri 08:24:47 PM 49.3833 -112.4167 316° Northwest 380 437 32,000  Level Edmonton Center
Fri 08:25:47 PM 49.4500 -112.5167 323° Northwest 380 437 32,000  Level Edmonton Center
Fri 08:26:47 PM 49.5500 -112.6333 333° Northwest 380 437 32,000  Level Edmonton Center
Fri 08:27:47 PM 49.6333 -112.7000 331° Northwest 390 449 32,000 -50 Level Edmonton Center
Fri 08:28:47 PM 49.7500 -112.8000 333° Northwest 390 449 31,900  Descending Edmonton Center
Fri 08:29:47 PM 49.8333 -112.8667 332° Northwest 390 449 32,000 -800 Climbing Edmonton Center
Fri 08:30:47 PM 49.9333 -112.9500 332° Northwest 400 460 30,300 -2,350 Descending Edmonton Center
Fri 08:31:47 PM 50.0333 -113.0333 337° Northwest 410 472 27,300 -2,950 Descending Edmonton Center
Fri 08:32:47 PM 50.1333 -113.1000 327° Northwest 400 460 24,400 -3,000 Descending Edmonton Center
Fri 08:33:47 PM 50.2333 -113.2000 337° Northwest 420 483 21,300 -3,000 Descending Edmonton Center
Fri 08:34:47 PM 50.3333 -113.2667 328° Northwest 400 460 18,400 -3,150 Descending Edmonton Center
Fri 08:35:47 PM 50.4333 -113.3667 333° Northwest 380 437 15,000 -3,150 Descending Edmonton Center
Fri 08:36:47 PM 50.5167 -113.4333 335° Northwest 370 426 12,100 -1,550 Descending Edmonton Center
Fri 08:37:47 PM 50.5833 -113.4833 328° Northwest 300 345 11,900 -850 Descending Edmonton Center
Fri 08:38:47 PM 50.6500 -113.5500 342° North 250 288 10,400 -1,350 Descending Edmonton Center
Fri 08:39:47 PM 50.7167 -113.5833 North 240 276 9,200 -1,250 Descending Edmonton Center
Fri 08:40:47 PM 50.7833 -113.5667 351° North 250 288 7,900 -1,200 Descending Edmonton Center
Fri 08:41:47 PM 50.8500 -113.5833 351° North 250 288 6,800 -700 Descending Edmonton Center
Fri 08:42:47 PM 50.9167 -113.6000 317° Northwest 230 265 6,500 -150 Descending Edmonton Center
Fri 08:43:47 PM 50.9500 -113.6500 308° West 170 196 6,500  Level Edmonton Center
Fri 08:44:47 PM 50.9833 -113.7167 270° West 160 184 6,500  Level Edmonton Center
Fri 08:45:47 PM 50.9833 -113.7667 308° West 160 184 6,500 -50 Level Edmonton Center
Fri 08:46:47 PM 51.0167 -113.8333 308° West 150 173 6,400 -100 Descending Edmonton Center

Login

Don't have an account? Register now (free) for customized features, flight alerts, and more!